createdAt,value
2022-10-04T00:01:29.230Z,7.23
2022-10-04T00:04:06.757Z,11.37
2022-10-04T00:06:36.475Z,10.90
2022-10-04T00:09:14.677Z,6.67
2022-10-04T00:11:46.815Z,7.50
2022-10-04T00:14:20.147Z,11.37
2022-10-04T00:16:49.338Z,8.93
2022-10-04T00:19:41.472Z,8.33
2022-10-04T00:22:27.827Z,9.90
2022-10-04T00:25:35.092Z,12.63
2022-10-04T00:28:43.393Z,12.53
2022-10-04T00:31:15.608Z,7.07
2022-10-04T00:33:46.241Z,8.17
2022-10-04T00:36:54.724Z,6.23
2022-10-04T00:39:39.390Z,12.83
2022-10-04T00:42:25.829Z,7.97
2022-10-04T00:44:58.838Z,5.10
2022-10-04T00:47:32.361Z,11.27
2022-10-04T00:50:12.649Z,10.80
2022-10-04T00:52:47.180Z,8.27
2022-10-04T00:55:26.378Z,8.40
2022-10-04T00:58:00.998Z,11.17
2022-10-04T01:00:33.458Z,6.47
2022-10-04T01:03:06.407Z,11.43
2022-10-04T01:05:38.200Z,8.60
2022-10-04T01:08:10.872Z,8.60
2022-10-04T01:10:43.807Z,10.37
2022-10-04T01:13:17.963Z,12.63
2022-10-04T01:15:55.400Z,7.97
2022-10-04T01:18:32.776Z,7.43
2022-10-04T01:21:05.598Z,8.53
2022-10-04T01:23:43.806Z,11.10
2022-10-04T01:26:38.968Z,8.70
2022-10-04T01:29:13.276Z,9.43
2022-10-04T01:31:44.746Z,9.07
2022-10-04T01:34:16.362Z,8.33
2022-10-04T01:36:47.420Z,6.97
2022-10-04T01:39:18.614Z,7.77
2022-10-04T01:41:53.141Z,8.87
2022-10-04T01:44:29.156Z,10.47
2022-10-04T01:47:00.783Z,11.80
2022-10-04T01:49:33.394Z,11.80
2022-10-04T01:52:09.950Z,10.67
2022-10-04T01:54:44.240Z,9.00
2022-10-04T01:57:17.509Z,9.00
2022-10-04T01:59:52.640Z,11.33
2022-10-04T02:02:28.710Z,11.67
2022-10-04T02:04:59.909Z,11.00
2022-10-04T02:07:32.615Z,10.03
2022-10-04T02:10:06.877Z,8.73
2022-10-04T02:12:38.307Z,13.00
2022-10-04T02:15:10.072Z,10.27
2022-10-04T02:17:42.769Z,10.43
2022-10-04T02:20:16.314Z,10.90
2022-10-04T02:22:47.048Z,9.10
2022-10-04T02:25:20.294Z,9.93
2022-10-04T02:27:49.476Z,14.13
2022-10-04T02:30:18.082Z,11.73
2022-10-04T02:33:00.784Z,11.10
2022-10-04T02:35:46.423Z,11.43
2022-10-04T02:38:21.283Z,12.50
2022-10-04T02:40:58.186Z,9.73
2022-10-04T02:43:31.976Z,12.00
2022-10-04T02:46:07.510Z,11.60
2022-10-04T02:48:42.932Z,13.07
2022-10-04T02:51:21.569Z,15.47
2022-10-04T02:54:03.101Z,13.73
2022-10-04T02:56:34.671Z,14.37
2022-10-04T02:59:05.687Z,12.20
2022-10-04T03:01:51.025Z,13.23
2022-10-04T03:04:23.420Z,12.57
2022-10-04T03:06:54.566Z,12.17
2022-10-04T03:09:29.504Z,12.40
2022-10-04T03:12:00.341Z,16.13
2022-10-04T03:14:30.510Z,14.70
2022-10-04T03:17:04.168Z,11.87
2022-10-04T03:19:34.935Z,12.63
2022-10-04T03:22:07.658Z,13.70
2022-10-04T03:24:40.954Z,14.33
2022-10-04T03:27:15.623Z,10.30
2022-10-04T03:29:44.861Z,13.80
2022-10-04T03:32:16.996Z,14.60
2022-10-04T03:34:54.248Z,12.67
2022-10-04T03:37:23.394Z,14.13
2022-10-04T03:39:55.003Z,12.63
2022-10-04T03:42:27.842Z,13.20
2022-10-04T03:45:01.113Z,14.67
2022-10-04T03:47:33.474Z,18.13
2022-10-04T03:50:06.650Z,15.03
2022-10-04T03:52:38.343Z,14.23
2022-10-04T03:55:09.767Z,18.90
2022-10-04T03:57:40.036Z,16.03
2022-10-04T04:00:09.793Z,14.60
2022-10-04T04:02:46.142Z,13.40
2022-10-04T04:05:21.197Z,13.37
2022-10-04T04:07:57.512Z,17.47
2022-10-04T04:10:30.535Z,13.20
2022-10-04T04:13:08.319Z,13.00
2022-10-04T04:15:36.972Z,15.00
2022-10-04T04:18:07.918Z,15.93
2022-10-04T04:20:39.283Z,17.93
2022-10-04T04:23:21.373Z,14.80
2022-10-04T04:25:54.555Z,14.00
2022-10-04T04:28:29.040Z,14.40
2022-10-04T04:31:01.821Z,13.80
2022-10-04T04:33:32.844Z,16.30
2022-10-04T04:36:07.065Z,14.87
2022-10-04T04:38:56.619Z,16.93
2022-10-04T04:41:26.843Z,15.03
2022-10-04T04:43:57.196Z,16.23
2022-10-04T04:46:27.961Z,14.23
2022-10-04T04:49:02.720Z,15.60
2022-10-04T04:51:33.632Z,16.53
2022-10-04T04:54:06.005Z,15.87
2022-10-04T04:56:36.158Z,15.40
2022-10-04T04:59:09.244Z,16.90
2022-10-04T05:01:43.795Z,17.37
2022-10-04T05:04:21.374Z,17.57
2022-10-04T05:07:01.259Z,15.17
2022-10-04T05:09:32.629Z,13.93
2022-10-04T05:12:17.231Z,13.93
2022-10-04T05:14:50.535Z,16.17
2022-10-04T05:17:21.599Z,16.20
2022-10-04T05:19:51.952Z,13.03
2022-10-04T05:22:24.528Z,16.00
2022-10-04T05:24:56.530Z,13.97
2022-10-04T05:27:32.052Z,16.73
2022-10-04T05:30:08.745Z,16.00
2022-10-04T05:32:48.242Z,17.07
2022-10-04T05:35:19.240Z,14.67
2022-10-04T05:37:57.214Z,16.97
2022-10-04T05:40:35.106Z,19.03
2022-10-04T05:43:04.180Z,16.50
2022-10-04T05:45:34.644Z,17.13
2022-10-04T05:48:09.448Z,16.47
2022-10-04T05:50:41.498Z,16.03
2022-10-04T05:53:23.327Z,16.80
2022-10-04T05:55:59.334Z,15.03
2022-10-04T05:58:45.246Z,17.33
2022-10-04T06:01:33.026Z,15.40
2022-10-04T06:04:25.349Z,18.03
2022-10-04T06:06:58.698Z,15.67
2022-10-04T06:09:45.217Z,12.70
2022-10-04T06:12:19.139Z,15.20
2022-10-04T06:15:06.726Z,13.70
2022-10-04T06:17:51.442Z,15.27
2022-10-04T06:20:59.741Z,14.07
2022-10-04T06:23:31.789Z,16.83
2022-10-04T06:26:04.523Z,13.07
2022-10-04T06:28:38.207Z,11.93
2022-10-04T06:31:36.311Z,12.47
2022-10-04T06:34:32.194Z,16.27
2022-10-04T06:37:30.461Z,12.80
2022-10-04T06:40:20.236Z,11.43
2022-10-04T06:43:20.734Z,13.20
2022-10-04T06:46:06.352Z,14.07
2022-10-04T06:48:59.723Z,15.87
2022-10-04T06:51:46.151Z,11.90
2022-10-04T06:54:32.881Z,15.80
2022-10-04T06:57:21.639Z,12.83
2022-10-04T07:00:10.485Z,13.40
2022-10-04T07:02:48.190Z,12.13
2022-10-04T07:05:30.741Z,11.17
2022-10-04T07:08:15.645Z,14.77
2022-10-04T07:10:55.837Z,14.10
2022-10-04T07:13:42.242Z,13.93
2022-10-04T07:16:36.528Z,11.73
2022-10-04T07:19:33.891Z,12.77
2022-10-04T07:22:15.675Z,9.70
2022-10-04T07:24:57.949Z,11.80
2022-10-04T07:27:33.535Z,9.20
2022-10-04T07:30:10.730Z,10.50
2022-10-04T07:32:45.659Z,10.47
2022-10-04T07:35:34.143Z,14.07
2022-10-04T07:38:12.334Z,12.83
2022-10-04T07:41:02.685Z,12.27
2022-10-04T07:43:34.733Z,8.40
2022-10-04T07:46:08.136Z,10.47
2022-10-04T07:48:43.387Z,12.40
2022-10-04T07:51:28.005Z,10.40
2022-10-04T07:54:04.310Z,10.20
2022-10-04T07:56:42.810Z,9.07
2022-10-04T07:59:29.668Z,13.07
2022-10-04T08:02:12.226Z,11.13
2022-10-04T08:04:50.331Z,14.97
2022-10-04T08:07:46.558Z,18.20
2022-10-04T08:10:30.202Z,15.63
2022-10-04T08:13:16.528Z,14.57
2022-10-04T08:15:46.588Z,15.73
2022-10-04T08:18:29.522Z,12.90
2022-10-04T08:21:00.403Z,10.20
2022-10-04T08:23:54.130Z,13.70
2022-10-04T08:26:40.258Z,15.03
2022-10-04T08:29:45.040Z,13.57
2022-10-04T08:32:36.779Z,12.07
2022-10-04T08:35:37.348Z,13.67
2022-10-04T08:38:28.121Z,13.30
2022-10-04T08:41:29.993Z,12.33
2022-10-04T08:44:44.800Z,13.67
2022-10-04T08:47:39.003Z,11.30
2022-10-04T08:50:54.460Z,13.00
2022-10-04T08:54:02.584Z,11.80
2022-10-04T08:56:55.900Z,14.00
2022-10-04T09:00:00.282Z,10.87
2022-10-04T09:03:02.013Z,11.43
2022-10-04T09:05:57.344Z,10.03
2022-10-04T09:09:17.902Z,9.17
2022-10-04T09:12:11.077Z,10.50
2022-10-04T09:15:03.594Z,12.33
2022-10-04T09:17:47.279Z,8.73
2022-10-04T09:20:38.794Z,12.00
2022-10-04T09:23:24.033Z,10.63
2022-10-04T09:26:15.584Z,13.10
2022-10-04T09:29:28.722Z,7.73
2022-10-04T09:32:32.741Z,9.70
2022-10-04T09:35:32.254Z,9.20
2022-10-04T09:38:24.328Z,9.50
2022-10-04T09:41:06.779Z,14.47
2022-10-04T09:44:26.248Z,10.47
2022-10-04T09:47:14.390Z,11.40
2022-10-04T09:50:27.144Z,9.77
2022-10-04T09:53:06.065Z,8.90
2022-10-04T09:55:49.772Z,7.77
2022-10-04T09:58:46.741Z,9.17
2022-10-04T10:01:23.388Z,7.90
2022-10-04T10:04:18.909Z,9.77
2022-10-04T10:07:02.310Z,8.60
2022-10-04T10:09:55.689Z,9.37
2022-10-04T10:13:07.700Z,9.77
2022-10-04T10:15:49.489Z,6.97
2022-10-04T10:18:28.102Z,8.40
2022-10-04T10:21:18.143Z,7.00
2022-10-04T10:24:19.103Z,8.67
2022-10-04T10:27:04.162Z,14.00
2022-10-04T10:30:10.207Z,7.60
2022-10-04T10:33:02.924Z,9.90
2022-10-04T10:36:04.478Z,4.87
2022-10-04T10:39:02.480Z,6.17
2022-10-04T10:41:49.736Z,8.43
2022-10-04T10:44:31.250Z,8.10
2022-10-04T10:47:12.966Z,7.43
2022-10-04T10:50:01.948Z,7.37
2022-10-04T10:53:01.119Z,10.07
2022-10-04T10:56:27.891Z,6.53
2022-10-04T10:59:34.478Z,9.03
2022-10-04T11:02:49.409Z,6.13
2022-10-04T11:05:58.504Z,6.47
2022-10-04T11:09:12.864Z,8.37
2022-10-04T11:12:06.281Z,6.07
2022-10-04T11:15:03.106Z,6.83
2022-10-04T11:18:09.819Z,9.03
2022-10-04T11:20:59.549Z,7.97
2022-10-04T11:24:00.686Z,7.40
2022-10-04T11:27:08.771Z,6.17
2022-10-04T11:29:56.717Z,7.00
2022-10-04T11:32:56.476Z,11.17
2022-10-04T11:36:00.253Z,8.20
2022-10-04T11:38:48.650Z,9.33
2022-10-04T11:41:25.001Z,8.97
2022-10-04T11:44:18.081Z,5.90
2022-10-04T11:46:55.173Z,7.47
2022-10-04T11:49:45.238Z,6.37
2022-10-04T11:52:57.980Z,6.60
2022-10-04T11:56:11.803Z,6.57
2022-10-04T11:59:05.605Z,9.07
2022-10-04T12:02:07.775Z,7.73
2022-10-04T12:05:05.407Z,7.67
2022-10-04T12:07:46.930Z,4.80
2022-10-04T12:10:24.882Z,7.13
2022-10-04T12:13:32.127Z,9.90
2022-10-04T12:16:29.818Z,7.17
2022-10-04T12:19:41.211Z,6.57
2022-10-04T12:22:29.554Z,6.33
2022-10-04T12:25:37.602Z,6.10
2022-10-04T12:28:27.140Z,4.63
2022-10-04T12:31:17.833Z,8.27
2022-10-04T12:33:54.273Z,7.07
2022-10-04T12:36:37.262Z,21.17
2022-10-04T12:39:22.919Z,4.73
2022-10-04T12:41:59.375Z,6.33
2022-10-04T12:44:42.179Z,5.60
2022-10-04T12:47:46.037Z,7.00
2022-10-04T12:50:26.412Z,5.23
2022-10-04T12:53:04.076Z,5.30
2022-10-04T12:55:53.975Z,5.80
2022-10-04T12:58:30.571Z,6.60
2022-10-04T13:01:09.085Z,7.63
2022-10-04T13:03:45.331Z,6.83
2022-10-04T13:06:24.501Z,5.90
2022-10-04T13:09:06.311Z,3.33
2022-10-04T13:11:59.207Z,4.50
2022-10-04T13:15:06.617Z,4.30
2022-10-04T13:17:46.071Z,7.40
2022-10-04T13:20:47.301Z,5.77
2022-10-04T13:23:26.164Z,4.10
2022-10-04T13:26:16.943Z,4.60
2022-10-04T13:28:57.375Z,5.03
2022-10-04T13:31:34.913Z,5.33
2022-10-04T13:34:15.758Z,9.03
2022-10-04T13:37:00.786Z,7.10
2022-10-04T13:39:56.684Z,5.10
2022-10-04T13:42:43.381Z,6.47
2022-10-04T13:45:26.770Z,5.63
2022-10-04T13:48:27.745Z,3.50
2022-10-04T13:51:17.716Z,5.37
2022-10-04T13:54:13.664Z,4.33
2022-10-04T13:57:00.402Z,5.00
2022-10-04T13:59:43.570Z,5.70
2022-10-04T14:02:49.326Z,4.33
2022-10-04T14:06:00.514Z,5.53
2022-10-04T14:09:10.768Z,5.83
2022-10-04T14:11:59.417Z,6.03
2022-10-04T14:15:09.552Z,5.20
2022-10-04T14:18:32.158Z,4.97
2022-10-04T14:21:42.581Z,6.30
2022-10-04T14:24:41.141Z,7.77
2022-10-04T14:27:33.403Z,4.87
2022-10-04T14:30:19.739Z,5.87
2022-10-04T14:33:18.820Z,5.03
2022-10-04T14:35:54.399Z,6.27
2022-10-04T14:38:44.279Z,7.00
2022-10-04T14:41:48.443Z,5.50
2022-10-04T14:44:36.204Z,4.53
2022-10-04T14:47:28.994Z,4.83
2022-10-04T14:50:19.821Z,5.00
2022-10-04T14:53:03.798Z,6.07
2022-10-04T14:55:53.050Z,5.70
2022-10-04T14:58:29.234Z,4.97
2022-10-04T15:01:18.009Z,9.10
2022-10-04T15:04:01.211Z,6.63
2022-10-04T15:06:41.512Z,7.97
2022-10-04T15:09:38.251Z,4.83
2022-10-04T15:13:05.814Z,6.70
2022-10-04T15:16:00.138Z,4.37
2022-10-04T15:18:48.633Z,5.43
2022-10-04T15:21:41.224Z,5.33
2022-10-04T15:24:32.024Z,6.20
2022-10-04T15:27:36.578Z,7.63
2022-10-04T15:30:14.732Z,8.27
2022-10-04T15:32:55.754Z,7.83
2022-10-04T15:35:37.310Z,7.57
2022-10-04T15:38:24.061Z,7.10
2022-10-04T15:41:03.867Z,5.77
2022-10-04T15:43:39.130Z,4.77
2022-10-04T15:46:31.782Z,6.07
2022-10-04T15:49:31.243Z,4.33
2022-10-04T15:52:29.215Z,3.87
2022-10-04T15:55:34.072Z,6.33
2022-10-04T15:58:26.396Z,5.57
2022-10-04T16:01:15.024Z,8.60
2022-10-04T16:03:50.460Z,4.97
2022-10-04T16:06:25.325Z,6.37
2022-10-04T16:09:21.389Z,7.70
2022-10-04T16:12:05.524Z,4.90
2022-10-04T16:15:01.233Z,5.70
2022-10-04T16:17:58.983Z,4.60
2022-10-04T16:20:49.847Z,4.23
2022-10-04T16:23:33.689Z,5.43
2022-10-04T16:26:05.708Z,5.17
2022-10-04T16:29:11.257Z,6.23
2022-10-04T16:31:47.794Z,5.23
2022-10-04T16:34:47.768Z,4.83
2022-10-04T16:37:22.781Z,3.47
2022-10-04T16:40:03.677Z,6.77
2022-10-04T16:42:51.525Z,5.47
2022-10-04T16:45:39.551Z,5.70
2022-10-04T16:48:27.734Z,4.03
2022-10-04T16:51:32.765Z,5.07
2022-10-04T16:54:12.049Z,6.13
2022-10-04T16:57:16.105Z,6.10
2022-10-04T16:59:53.187Z,6.97
2022-10-04T17:02:51.845Z,6.47
2022-10-04T17:05:31.959Z,6.23
2022-10-04T17:08:26.708Z,7.70
2022-10-04T17:11:37.785Z,7.83
2022-10-04T17:14:36.676Z,7.40
2022-10-04T17:17:18.450Z,8.37
2022-10-04T17:19:53.119Z,8.50
2022-10-04T17:22:33.594Z,8.40
2022-10-04T17:25:17.638Z,8.60
2022-10-04T17:27:50.839Z,7.50
2022-10-04T17:30:22.949Z,6.60
2022-10-04T17:33:19.757Z,8.73
2022-10-04T17:36:00.588Z,9.13
2022-10-04T17:38:38.062Z,8.57
2022-10-04T17:41:17.104Z,8.17
2022-10-04T17:44:03.678Z,8.13
2022-10-04T17:46:39.086Z,9.90
2022-10-04T17:49:37.943Z,8.83
2022-10-04T17:52:34.289Z,10.87
2022-10-04T17:55:17.851Z,9.63
2022-10-04T17:57:52.309Z,10.00
2022-10-04T18:00:27.048Z,9.77
2022-10-04T18:03:18.019Z,10.87
2022-10-04T18:05:55.928Z,14.73
2022-10-04T18:08:43.637Z,12.23
2022-10-04T18:11:22.889Z,12.87
2022-10-04T18:13:58.369Z,12.93
2022-10-04T18:16:40.885Z,11.87
2022-10-04T18:19:41.074Z,12.13
2022-10-04T18:22:16.092Z,12.80
2022-10-04T18:25:05.146Z,10.80
2022-10-04T18:27:35.162Z,10.67
2022-10-04T18:30:20.726Z,16.87
2022-10-04T18:32:55.216Z,15.70
2022-10-04T18:35:31.250Z,14.33
2022-10-04T18:38:25.505Z,14.93
2022-10-04T18:41:07.216Z,16.07
2022-10-04T18:43:51.488Z,18.80
2022-10-04T18:46:27.492Z,17.50
2022-10-04T18:49:02.677Z,18.23
2022-10-04T18:51:43.024Z,20.23
2022-10-04T18:54:30.363Z,18.50
2022-10-04T18:57:17.143Z,18.90
2022-10-04T19:00:21.758Z,18.97
2022-10-04T19:03:12.825Z,16.07
2022-10-04T19:05:54.990Z,17.53
2022-10-04T19:08:44.823Z,16.67
2022-10-04T19:11:23.016Z,16.63
2022-10-04T19:14:09.060Z,14.20
2022-10-04T19:16:46.160Z,14.23
2022-10-04T19:19:42.759Z,16.30
2022-10-04T19:22:27.026Z,14.77
2022-10-04T19:25:34.028Z,17.33
2022-10-04T19:28:09.320Z,16.80
2022-10-04T19:30:55.916Z,19.67
2022-10-04T19:33:35.624Z,19.40
2022-10-04T19:36:18.558Z,18.00
2022-10-04T19:39:09.028Z,18.53
2022-10-04T19:41:52.768Z,17.77
2022-10-04T19:44:37.527Z,18.10
2022-10-04T19:47:21.756Z,17.87
2022-10-04T19:49:58.688Z,19.17
2022-10-04T19:52:41.023Z,19.60
2022-10-04T19:55:24.555Z,20.87
2022-10-04T19:58:02.049Z,20.20
2022-10-04T20:00:36.353Z,19.63
2022-10-04T20:03:12.358Z,20.57
2022-10-04T20:05:54.141Z,17.77
2022-10-04T20:09:01.581Z,17.07
2022-10-04T20:11:50.002Z,20.40
2022-10-04T20:14:45.341Z,15.33
2022-10-04T20:17:35.431Z,16.33
2022-10-04T20:20:12.599Z,16.00
2022-10-04T20:22:58.963Z,13.83
2022-10-04T20:26:02.050Z,13.33
2022-10-04T20:28:46.553Z,15.30
2022-10-04T20:31:53.358Z,14.77
2022-10-04T20:34:35.997Z,16.70
2022-10-04T20:37:07.877Z,14.53
2022-10-04T20:40:00.667Z,14.90
2022-10-04T20:42:37.335Z,13.53
2022-10-04T20:45:31.832Z,14.60
2022-10-04T20:48:00.896Z,15.20
2022-10-04T20:50:44.023Z,13.13
2022-10-04T20:53:21.642Z,14.30
2022-10-04T20:55:57.559Z,16.13
2022-10-04T20:58:35.681Z,16.60
2022-10-04T21:01:19.620Z,14.00
2022-10-04T21:03:48.820Z,13.87
2022-10-04T21:06:18.019Z,13.83
2022-10-04T21:08:49.250Z,12.60
2022-10-04T21:11:22.880Z,14.57
2022-10-04T21:13:54.442Z,15.73
2022-10-04T21:16:37.590Z,13.80
2022-10-04T21:19:46.175Z,13.23
2022-10-04T21:22:42.555Z,12.33
2022-10-04T21:25:34.171Z,12.80
2022-10-04T21:28:36.742Z,11.23
2022-10-04T21:31:06.242Z,13.30
2022-10-04T21:33:36.206Z,15.40
2022-10-04T21:36:07.729Z,13.00
2022-10-04T21:38:41.574Z,12.83
2022-10-04T21:41:12.025Z,15.83
2022-10-04T21:43:40.847Z,13.23
2022-10-04T21:46:10.035Z,12.77
2022-10-04T21:48:41.757Z,11.77
2022-10-04T21:51:10.721Z,12.93
2022-10-04T21:53:39.506Z,13.43
2022-10-04T21:56:12.196Z,11.20
2022-10-04T21:58:42.532Z,13.83
2022-10-04T22:01:11.887Z,14.03
2022-10-04T22:03:40.687Z,14.17
2022-10-04T22:06:09.366Z,13.80
2022-10-04T22:08:38.394Z,13.07
2022-10-04T22:11:07.529Z,12.37
2022-10-04T22:13:36.289Z,15.37
2022-10-04T22:16:07.448Z,15.10
2022-10-04T22:18:36.468Z,13.33
2022-10-04T22:21:05.648Z,13.30
2022-10-04T22:23:40.068Z,14.57
2022-10-04T22:26:13.487Z,13.30
2022-10-04T22:28:45.101Z,12.97
2022-10-04T22:31:17.917Z,19.83
2022-10-04T22:33:49.212Z,15.87
2022-10-04T22:36:22.999Z,14.30
2022-10-04T22:38:57.977Z,17.17
2022-10-04T22:41:30.119Z,12.67
2022-10-04T22:44:01.135Z,11.63
2022-10-04T22:46:37.551Z,13.20
2022-10-04T22:49:11.578Z,12.50
2022-10-04T22:51:41.903Z,13.63
2022-10-04T22:54:13.980Z,15.23
2022-10-04T22:56:43.007Z,14.20
2022-10-04T22:59:13.612Z,14.63
2022-10-04T23:01:44.907Z,13.70
2022-10-04T23:04:17.166Z,11.80
2022-10-04T23:06:46.723Z,13.93
2022-10-04T23:09:15.694Z,12.93
2022-10-04T23:11:44.661Z,13.13
2022-10-04T23:14:13.860Z,14.13
2022-10-04T23:16:44.830Z,12.70
2022-10-04T23:19:16.304Z,12.67
2022-10-04T23:21:47.239Z,12.57
2022-10-04T23:24:18.206Z,12.67
2022-10-04T23:26:49.287Z,13.53
2022-10-04T23:29:22.764Z,14.33
2022-10-04T23:31:53.546Z,11.50
2022-10-04T23:34:28.045Z,13.27
2022-10-04T23:36:57.735Z,12.57
2022-10-04T23:39:29.832Z,12.17
2022-10-04T23:42:00.186Z,13.33
2022-10-04T23:44:35.075Z,12.53
2022-10-04T23:47:07.035Z,12.20
2022-10-04T23:49:35.870Z,12.37
2022-10-04T23:52:05.462Z,12.17
2022-10-04T23:54:33.971Z,13.03
2022-10-04T23:57:02.802Z,12.53
2022-10-04T23:59:31.380Z,13.40
